sensor_id;sensor_type;location;lat;lon;timestamp;pressure;altitude;pressure_sealevel;temperature
24586;BMP280;12743;52.262;6.172;2023-05-27T00:01:08;102128.78;;;9.84
24586;BMP280;12743;52.262;6.172;2023-05-27T00:03:35;102109.19;;;9.95
24586;BMP280;12743;52.262;6.172;2023-05-27T00:06:02;102109.66;;;9.79
24586;BMP280;12743;52.262;6.172;2023-05-27T00:08:28;102150.78;;;10.26
24586;BMP280;12743;52.262;6.172;2023-05-27T00:10:55;102125.59;;;10.06
24586;BMP280;12743;52.262;6.172;2023-05-27T00:13:22;102164.09;;;10.29
24586;BMP280;12743;52.262;6.172;2023-05-27T00:15:48;102144.53;;;10.22
24586;BMP280;12743;52.262;6.172;2023-05-27T00:18:16;102125.28;;;10.07
24586;BMP280;12743;52.262;6.172;2023-05-27T00:20:42;102136.34;;;10.04
24586;BMP280;12743;52.262;6.172;2023-05-27T00:23:09;102058.50;;;9.39
24586;BMP280;12743;52.262;6.172;2023-05-27T00:25:36;102044.91;;;9.56
24586;BMP280;12743;52.262;6.172;2023-05-27T00:28:02;102035.97;;;9.38
24586;BMP280;12743;52.262;6.172;2023-05-27T00:30:29;102085.38;;;9.92
24586;BMP280;12743;52.262;6.172;2023-05-27T00:32:57;102053.63;;;9.51
24586;BMP280;12743;52.262;6.172;2023-05-27T00:35:24;102041.63;;;9.69
24586;BMP280;12743;52.262;6.172;2023-05-27T00:37:50;102039.69;;;9.56
24586;BMP280;12743;52.262;6.172;2023-05-27T00:40:21;102062.72;;;9.77
24586;BMP280;12743;52.262;6.172;2023-05-27T00:42:49;102019.84;;;9.50
24586;BMP280;12743;52.262;6.172;2023-05-27T00:45:15;102038.41;;;9.53
24586;BMP280;12743;52.262;6.172;2023-05-27T00:47:42;102022.16;;;9.51
24586;BMP280;12743;52.262;6.172;2023-05-27T00:50:09;102045.44;;;9.76
24586;BMP280;12743;52.262;6.172;2023-05-27T00:52:35;101994.38;;;9.50
24586;BMP280;12743;52.262;6.172;2023-05-27T00:55:02;101978.56;;;9.36
24586;BMP280;12743;52.262;6.172;2023-05-27T00:57:29;102013.97;;;9.76
24586;BMP280;12743;52.262;6.172;2023-05-27T00:59:56;101980.75;;;9.48
24586;BMP280;12743;52.262;6.172;2023-05-27T01:02:22;101963.72;;;9.27
24586;BMP280;12743;52.262;6.172;2023-05-27T01:04:50;101962.66;;;9.28
24586;BMP280;12743;52.262;6.172;2023-05-27T01:07:40;101965.94;;;9.57
24586;BMP280;12743;52.262;6.172;2023-05-27T01:12:58;101987.47;;;9.54
24586;BMP280;12743;52.262;6.172;2023-05-27T01:15:28;101982.88;;;9.46
24586;BMP280;12743;52.262;6.172;2023-05-27T01:18:00;101981.19;;;9.55
24586;BMP280;12743;52.262;6.172;2023-05-27T01:20:28;101964.84;;;9.21
24586;BMP280;12743;52.262;6.172;2023-05-27T01:22:56;101920.19;;;9.07
24586;BMP280;12743;52.262;6.172;2023-05-27T01:25:23;101890.56;;;8.88
24586;BMP280;12743;52.262;6.172;2023-05-27T01:27:50;101887.91;;;9.12
24586;BMP280;12743;52.262;6.172;2023-05-27T01:30:19;101939.50;;;9.16
24586;BMP280;12743;52.262;6.172;2023-05-27T01:32:55;101979.41;;;9.51
24586;BMP280;12743;52.262;6.172;2023-05-27T01:35:31;101990.75;;;9.46
24586;BMP280;12743;52.262;6.172;2023-05-27T01:38:04;102003.09;;;9.46
24586;BMP280;12743;52.262;6.172;2023-05-27T01:40:33;101933.41;;;8.97
24586;BMP280;12743;52.262;6.172;2023-05-27T01:43:00;101985.88;;;9.39
24586;BMP280;12743;52.262;6.172;2023-05-27T01:45:30;101843.69;;;8.44
24586;BMP280;12743;52.262;6.172;2023-05-27T01:47:58;101841.25;;;8.77
24586;BMP280;12743;52.262;6.172;2023-05-27T01:50:24;101898.97;;;9.09
24586;BMP280;12743;52.262;6.172;2023-05-27T01:52:51;101934.88;;;9.08
24586;BMP280;12743;52.262;6.172;2023-05-27T01:55:18;101919.72;;;9.05
24586;BMP280;12743;52.262;6.172;2023-05-27T01:57:45;101874.59;;;8.90
24586;BMP280;12743;52.262;6.172;2023-05-27T02:00:12;101959.13;;;9.19
24586;BMP280;12743;52.262;6.172;2023-05-27T02:02:42;101983.88;;;9.50
24586;BMP280;12743;52.262;6.172;2023-05-27T02:05:12;101897.31;;;8.94
24586;BMP280;12743;52.262;6.172;2023-05-27T02:07:38;101909.69;;;9.12
24586;BMP280;12743;52.262;6.172;2023-05-27T02:10:06;101922.66;;;9.04
24586;BMP280;12743;52.262;6.172;2023-05-27T02:12:32;101884.19;;;8.76
24586;BMP280;12743;52.262;6.172;2023-05-27T02:14:59;101909.44;;;9.09
24586;BMP280;12743;52.262;6.172;2023-05-27T02:17:26;101965.28;;;9.28
24586;BMP280;12743;52.262;6.172;2023-05-27T02:19:53;101879.75;;;8.76
24586;BMP280;12743;52.262;6.172;2023-05-27T02:22:22;101907.38;;;8.87
24586;BMP280;12743;52.262;6.172;2023-05-27T02:24:50;101899.44;;;8.92
24586;BMP280;12743;52.262;6.172;2023-05-27T02:27:17;101864.94;;;8.66
24586;BMP280;12743;52.262;6.172;2023-05-27T02:29:43;101801.09;;;8.39
24586;BMP280;12743;52.262;6.172;2023-05-27T02:32:10;101890.66;;;8.83
24586;BMP280;12743;52.262;6.172;2023-05-27T02:34:37;101867.22;;;8.92
24586;BMP280;12743;52.262;6.172;2023-05-27T02:37:04;101857.44;;;8.79
24586;BMP280;12743;52.262;6.172;2023-05-27T02:39:31;101822.38;;;8.56
24586;BMP280;12743;52.262;6.172;2023-05-27T02:41:58;101881.34;;;8.48
24586;BMP280;12743;52.262;6.172;2023-05-27T02:44:24;101823.16;;;8.56
24586;BMP280;12743;52.262;6.172;2023-05-27T02:46:51;101864.59;;;8.49
24586;BMP280;12743;52.262;6.172;2023-05-27T02:49:18;101870.69;;;8.87
24586;BMP280;12743;52.262;6.172;2023-05-27T02:51:46;101830.91;;;8.61
24586;BMP280;12743;52.262;6.172;2023-05-27T02:54:12;101886.47;;;8.82
24586;BMP280;12743;52.262;6.172;2023-05-27T02:56:39;101843.63;;;8.49
24586;BMP280;12743;52.262;6.172;2023-05-27T02:59:06;101782.72;;;8.44
24586;BMP280;12743;52.262;6.172;2023-05-27T03:01:33;101899.72;;;8.91
24586;BMP280;12743;52.262;6.172;2023-05-27T03:03:59;101888.69;;;8.94
24586;BMP280;12743;52.262;6.172;2023-05-27T03:06:27;101894.47;;;8.91
24586;BMP280;12743;52.262;6.172;2023-05-27T03:08:53;101882.13;;;8.96
24586;BMP280;12743;52.262;6.172;2023-05-27T03:11:20;101958.34;;;9.18
24586;BMP280;12743;52.262;6.172;2023-05-27T03:13:47;101828.59;;;8.60
24586;BMP280;12743;52.262;6.172;2023-05-27T03:16:14;101818.13;;;8.60
24586;BMP280;12743;52.262;6.172;2023-05-27T03:18:40;101897.34;;;8.70
24586;BMP280;12743;52.262;6.172;2023-05-27T03:21:07;101816.66;;;8.49
24586;BMP280;12743;52.262;6.172;2023-05-27T03:23:34;101711.75;;;8.03
24586;BMP280;12743;52.262;6.172;2023-05-27T03:26:00;101755.25;;;8.41
24586;BMP280;12743;52.262;6.172;2023-05-27T03:28:28;101796.44;;;8.36
24586;BMP280;12743;52.262;6.172;2023-05-27T03:30:55;101764.59;;;8.47
24586;BMP280;12743;52.262;6.172;2023-05-27T03:33:37;101754.78;;;8.16
24586;BMP280;12743;52.262;6.172;2023-05-27T03:36:03;101746.69;;;8.36
24586;BMP280;12743;52.262;6.172;2023-05-27T03:38:30;101818.72;;;8.33
24586;BMP280;12743;52.262;6.172;2023-05-27T03:40:57;101854.59;;;8.56
24586;BMP280;12743;52.262;6.172;2023-05-27T03:43:24;101804.50;;;8.58
24586;BMP280;12743;52.262;6.172;2023-05-27T03:45:51;101770.13;;;8.22
24586;BMP280;12743;52.262;6.172;2023-05-27T03:48:18;101742.00;;;8.33
24586;BMP280;12743;52.262;6.172;2023-05-27T03:50:45;101713.75;;;8.11
24586;BMP280;12743;52.262;6.172;2023-05-27T03:53:13;101799.38;;;8.53
24586;BMP280;12743;52.262;6.172;2023-05-27T03:55:41;101839.94;;;8.74
24586;BMP280;12743;52.262;6.172;2023-05-27T03:58:08;101791.72;;;8.56
24586;BMP280;12743;52.262;6.172;2023-05-27T04:00:35;101772.94;;;8.49
24586;BMP280;12743;52.262;6.172;2023-05-27T04:03:05;101776.28;;;8.55
24586;BMP280;12743;52.262;6.172;2023-05-27T04:05:32;101708.94;;;8.18
24586;BMP280;12743;52.262;6.172;2023-05-27T04:08:02;101702.03;;;8.27
24586;BMP280;12743;52.262;6.172;2023-05-27T04:10:29;101658.50;;;7.94
24586;BMP280;12743;52.262;6.172;2023-05-27T04:12:56;101685.91;;;8.20
24586;BMP280;12743;52.262;6.172;2023-05-27T04:15:23;101753.97;;;8.39
24586;BMP280;12743;52.262;6.172;2023-05-27T04:17:50;101731.53;;;8.33
24586;BMP280;12743;52.262;6.172;2023-05-27T04:20:17;101763.31;;;8.45
24586;BMP280;12743;52.262;6.172;2023-05-27T04:22:48;101757.16;;;8.54
24586;BMP280;12743;52.262;6.172;2023-05-27T04:25:14;101707.56;;;8.26
24586;BMP280;12743;52.262;6.172;2023-05-27T04:28:01;101713.44;;;8.36
24586;BMP280;12743;52.262;6.172;2023-05-27T04:30:34;101811.91;;;8.32
24586;BMP280;12743;52.262;6.172;2023-05-27T04:33:06;101728.81;;;8.19
24586;BMP280;12743;52.262;6.172;2023-05-27T04:35:34;101680.91;;;8.00
24586;BMP280;12743;52.262;6.172;2023-05-27T04:38:02;101646.25;;;8.08
24586;BMP280;12743;52.262;6.172;2023-05-27T04:40:38;101784.94;;;8.32
24586;BMP280;12743;52.262;6.172;2023-05-27T04:43:19;101811.53;;;8.62
24586;BMP280;12743;52.262;6.172;2023-05-27T04:45:47;101739.00;;;8.63
24586;BMP280;12743;52.262;6.172;2023-05-27T04:48:15;101668.72;;;8.33
24586;BMP280;12743;52.262;6.172;2023-05-27T04:50:43;101668.91;;;8.18
24586;BMP280;12743;52.262;6.172;2023-05-27T04:53:11;101732.81;;;8.35
24586;BMP280;12743;52.262;6.172;2023-05-27T04:55:37;101720.06;;;8.29
24586;BMP280;12743;52.262;6.172;2023-05-27T04:58:05;101655.06;;;8.17
24586;BMP280;12743;52.262;6.172;2023-05-27T05:00:32;101610.78;;;8.21
24586;BMP280;12743;52.262;6.172;2023-05-27T05:03:17;101607.81;;;8.27
24586;BMP280;12743;52.262;6.172;2023-05-27T05:05:51;101626.44;;;8.26
24586;BMP280;12743;52.262;6.172;2023-05-27T05:08:19;101629.88;;;8.40
24586;BMP280;12743;52.262;6.172;2023-05-27T05:10:48;101608.63;;;8.41
24586;BMP280;12743;52.262;6.172;2023-05-27T05:13:16;101615.81;;;8.36
24586;BMP280;12743;52.262;6.172;2023-05-27T05:15:43;101552.50;;;8.15
24586;BMP280;12743;52.262;6.172;2023-05-27T05:18:12;101627.19;;;8.63
24586;BMP280;12743;52.262;6.172;2023-05-27T05:20:40;101660.06;;;8.69
24586;BMP280;12743;52.262;6.172;2023-05-27T05:23:10;101695.31;;;8.96
24586;BMP280;12743;52.262;6.172;2023-05-27T05:25:37;101650.59;;;8.73
24586;BMP280;12743;52.262;6.172;2023-05-27T05:28:06;101657.09;;;9.22
24586;BMP280;12743;52.262;6.172;2023-05-27T05:30:34;101665.63;;;9.27
24586;BMP280;12743;52.262;6.172;2023-05-27T05:33:01;101630.41;;;9.47
24586;BMP280;12743;52.262;6.172;2023-05-27T05:35:31;101644.28;;;9.48
24586;BMP280;12743;52.262;6.172;2023-05-27T05:38:12;101640.69;;;9.71
24586;BMP280;12743;52.262;6.172;2023-05-27T05:40:39;101633.53;;;9.49
24586;BMP280;12743;52.262;6.172;2023-05-27T05:43:14;101654.97;;;9.78
24586;BMP280;12743;52.262;6.172;2023-05-27T05:45:42;101714.16;;;9.84
24586;BMP280;12743;52.262;6.172;2023-05-27T05:48:09;101718.19;;;10.18
24586;BMP280;12743;52.262;6.172;2023-05-27T05:50:39;101731.91;;;10.15
24586;BMP280;12743;52.262;6.172;2023-05-27T05:53:07;101715.88;;;10.16
24586;BMP280;12743;52.262;6.172;2023-05-27T05:55:34;101721.06;;;10.30
24586;BMP280;12743;52.262;6.172;2023-05-27T05:58:01;101718.25;;;10.26
24586;BMP280;12743;52.262;6.172;2023-05-27T06:00:29;101711.44;;;10.39
24586;BMP280;12743;52.262;6.172;2023-05-27T06:03:14;101694.25;;;10.55
24586;BMP280;12743;52.262;6.172;2023-05-27T06:05:50;101701.97;;;10.51
24586;BMP280;12743;52.262;6.172;2023-05-27T06:08:16;101707.22;;;10.73
24586;BMP280;12743;52.262;6.172;2023-05-27T06:10:51;101693.59;;;10.71
24586;BMP280;12743;52.262;6.172;2023-05-27T06:13:19;101735.00;;;10.88
24586;BMP280;12743;52.262;6.172;2023-05-27T06:15:48;101722.78;;;11.14
24586;BMP280;12743;52.262;6.172;2023-05-27T06:18:15;101723.31;;;11.33
24586;BMP280;12743;52.262;6.172;2023-05-27T06:20:42;101776.28;;;11.40
24586;BMP280;12743;52.262;6.172;2023-05-27T06:23:09;101781.75;;;11.00
24586;BMP280;12743;52.262;6.172;2023-05-27T06:25:55;101741.31;;;10.87
24586;BMP280;12743;52.262;6.172;2023-05-27T06:28:24;101751.50;;;11.11
24586;BMP280;12743;52.262;6.172;2023-05-27T06:30:51;101729.97;;;11.00
24586;BMP280;12743;52.262;6.172;2023-05-27T06:33:19;101784.13;;;11.10
24586;BMP280;12743;52.262;6.172;2023-05-27T06:35:46;101775.88;;;11.25
24586;BMP280;12743;52.262;6.172;2023-05-27T06:38:12;101751.56;;;11.50
24586;BMP280;12743;52.262;6.172;2023-05-27T06:40:39;101769.28;;;11.67
24586;BMP280;12743;52.262;6.172;2023-05-27T06:43:07;101813.56;;;11.73
24586;BMP280;12743;52.262;6.172;2023-05-27T06:45:33;101801.97;;;11.74
24586;BMP280;12743;52.262;6.172;2023-05-27T06:48:13;101808.88;;;11.62
24586;BMP280;12743;52.262;6.172;2023-05-27T06:50:40;101821.44;;;11.65
24586;BMP280;12743;52.262;6.172;2023-05-27T06:53:07;101821.44;;;11.65
24586;BMP280;12743;52.262;6.172;2023-05-27T06:55:49;101802.56;;;11.71
24586;BMP280;12743;52.262;6.172;2023-05-27T06:58:40;101805.41;;;11.92
24586;BMP280;12743;52.262;6.172;2023-05-27T07:01:12;101813.53;;;12.12
24586;BMP280;12743;52.262;6.172;2023-05-27T07:03:44;101824.44;;;12.37
24586;BMP280;12743;52.262;6.172;2023-05-27T07:06:15;101873.06;;;12.22
24586;BMP280;12743;52.262;6.172;2023-05-27T07:08:46;101903.84;;;12.52
24586;BMP280;12743;52.262;6.172;2023-05-27T07:11:19;101879.78;;;12.54
24586;BMP280;12743;52.262;6.172;2023-05-27T07:13:47;101892.84;;;12.93
24586;BMP280;12743;52.262;6.172;2023-05-27T07:16:18;101888.34;;;12.93
24586;BMP280;12743;52.262;6.172;2023-05-27T07:18:46;101887.13;;;13.00
24586;BMP280;12743;52.262;6.172;2023-05-27T07:21:13;101901.22;;;12.78
24586;BMP280;12743;52.262;6.172;2023-05-27T07:23:40;101900.28;;;13.08
24586;BMP280;12743;52.262;6.172;2023-05-27T07:26:24;101936.44;;;12.82
24586;BMP280;12743;52.262;6.172;2023-05-27T07:28:51;101929.75;;;13.27
24586;BMP280;12743;52.262;6.172;2023-05-27T07:31:27;101932.72;;;13.43
24586;BMP280;12743;52.262;6.172;2023-05-27T07:33:58;101957.22;;;13.35
24586;BMP280;12743;52.262;6.172;2023-05-27T07:36:27;101942.63;;;13.63
24586;BMP280;12743;52.262;6.172;2023-05-27T07:38:54;101950.53;;;13.63
24586;BMP280;12743;52.262;6.172;2023-05-27T07:41:20;101952.34;;;14.17
24586;BMP280;12743;52.262;6.172;2023-05-27T07:43:48;101954.13;;;14.34
24586;BMP280;12743;52.262;6.172;2023-05-27T07:46:15;101993.81;;;13.79
24586;BMP280;12743;52.262;6.172;2023-05-27T07:48:42;101971.31;;;14.19
24586;BMP280;12743;52.262;6.172;2023-05-27T07:51:10;101996.31;;;14.13
24586;BMP280;12743;52.262;6.172;2023-05-27T07:53:36;102013.66;;;14.02
24586;BMP280;12743;52.262;6.172;2023-05-27T07:56:03;101988.84;;;14.24
24586;BMP280;12743;52.262;6.172;2023-05-27T07:58:30;102010.72;;;14.91
24586;BMP280;12743;52.262;6.172;2023-05-27T08:01:07;102033.84;;;14.74
24586;BMP280;12743;52.262;6.172;2023-05-27T08:03:34;102037.06;;;15.08
24586;BMP280;12743;52.262;6.172;2023-05-27T08:06:27;102067.28;;;15.28
24586;BMP280;12743;52.262;6.172;2023-05-27T08:09:07;102091.13;;;15.40
24586;BMP280;12743;52.262;6.172;2023-05-27T08:11:41;102102.22;;;15.13
24586;BMP280;12743;52.262;6.172;2023-05-27T08:14:34;102100.63;;;15.41
24586;BMP280;12743;52.262;6.172;2023-05-27T08:17:27;102114.75;;;15.45
24586;BMP280;12743;52.262;6.172;2023-05-27T08:20:12;102114.22;;;15.52
24586;BMP280;12743;52.262;6.172;2023-05-27T08:22:58;102105.34;;;14.86
24586;BMP280;12743;52.262;6.172;2023-05-27T08:25:43;102094.91;;;15.72
24586;BMP280;12743;52.262;6.172;2023-05-27T08:28:28;102115.03;;;15.85
24586;BMP280;12743;52.262;6.172;2023-05-27T08:31:06;102119.09;;;16.15
24586;BMP280;12743;52.262;6.172;2023-05-27T08:33:36;102128.00;;;16.55
24586;BMP280;12743;52.262;6.172;2023-05-27T08:36:05;102143.88;;;16.19
24586;BMP280;12743;52.262;6.172;2023-05-27T08:38:32;102139.06;;;16.00
24586;BMP280;12743;52.262;6.172;2023-05-27T08:41:12;102125.88;;;16.37
24586;BMP280;12743;52.262;6.172;2023-05-27T08:43:38;102138.81;;;16.62
24586;BMP280;12743;52.262;6.172;2023-05-27T08:46:06;102144.88;;;16.39
24586;BMP280;12743;52.262;6.172;2023-05-27T08:48:33;102159.03;;;16.43
24586;BMP280;12743;52.262;6.172;2023-05-27T08:51:00;102144.56;;;16.40
24586;BMP280;12743;52.262;6.172;2023-05-27T08:53:30;102167.59;;;16.60
24586;BMP280;12743;52.262;6.172;2023-05-27T08:55:57;102174.97;;;16.91
24586;BMP280;12743;52.262;6.172;2023-05-27T08:58:27;102169.56;;;16.99
24586;BMP280;12743;52.262;6.172;2023-05-27T09:00:56;102181.56;;;17.21
24586;BMP280;12743;52.262;6.172;2023-05-27T09:03:24;102191.75;;;17.31
24586;BMP280;12743;52.262;6.172;2023-05-27T09:05:54;102193.88;;;17.53
24586;BMP280;12743;52.262;6.172;2023-05-27T09:08:21;102190.75;;;17.63
24586;BMP280;12743;52.262;6.172;2023-05-27T09:10:48;102198.19;;;17.58
24586;BMP280;12743;52.262;6.172;2023-05-27T09:13:25;102196.78;;;17.48
24586;BMP280;12743;52.262;6.172;2023-05-27T09:16:01;102202.69;;;17.69
24586;BMP280;12743;52.262;6.172;2023-05-27T09:18:30;102202.88;;;17.49
24586;BMP280;12743;52.262;6.172;2023-05-27T09:20:57;102191.97;;;17.66
24586;BMP280;12743;52.262;6.172;2023-05-27T09:23:25;102198.13;;;17.98
24586;BMP280;12743;52.262;6.172;2023-05-27T09:25:52;102176.66;;;17.63
24586;BMP280;12743;52.262;6.172;2023-05-27T09:28:25;102201.25;;;18.15
24586;BMP280;12743;52.262;6.172;2023-05-27T09:31:03;102204.59;;;18.28
24586;BMP280;12743;52.262;6.172;2023-05-27T09:33:33;102205.84;;;18.03
24586;BMP280;12743;52.262;6.172;2023-05-27T09:36:00;102215.75;;;18.33
24586;BMP280;12743;52.262;6.172;2023-05-27T09:38:28;102218.09;;;18.35
24586;BMP280;12743;52.262;6.172;2023-05-27T09:40:57;102210.84;;;18.82
24586;BMP280;12743;52.262;6.172;2023-05-27T09:43:27;102210.44;;;18.33
24586;BMP280;12743;52.262;6.172;2023-05-27T09:46:01;102214.81;;;18.57
24586;BMP280;12743;52.262;6.172;2023-05-27T09:48:29;102217.59;;;18.45
24586;BMP280;12743;52.262;6.172;2023-05-27T09:50:58;102217.63;;;18.79
24586;BMP280;12743;52.262;6.172;2023-05-27T09:53:28;102222.63;;;18.81
24586;BMP280;12743;52.262;6.172;2023-05-27T09:55:55;102217.50;;;18.57
24586;BMP280;12743;52.262;6.172;2023-05-27T09:58:23;102200.28;;;18.70
24586;BMP280;12743;52.262;6.172;2023-05-27T10:00:50;102173.53;;;18.63
24586;BMP280;12743;52.262;6.172;2023-05-27T10:03:20;102178.13;;;18.81
24586;BMP280;12743;52.262;6.172;2023-05-27T10:05:49;102195.34;;;19.41
24586;BMP280;12743;52.262;6.172;2023-05-27T10:08:20;102195.00;;;19.62
24586;BMP280;12743;52.262;6.172;2023-05-27T10:10:52;102198.16;;;19.10
24586;BMP280;12743;52.262;6.172;2023-05-27T10:13:21;102191.81;;;19.18
24586;BMP280;12743;52.262;6.172;2023-05-27T10:15:51;102203.28;;;19.38
24586;BMP280;12743;52.262;6.172;2023-05-27T10:18:23;102205.09;;;19.72
24586;BMP280;12743;52.262;6.172;2023-05-27T10:20:50;102172.91;;;19.42
24586;BMP280;12743;52.262;6.172;2023-05-27T10:23:24;102202.50;;;19.75
24586;BMP280;12743;52.262;6.172;2023-05-27T10:25:56;102204.03;;;19.76
24586;BMP280;12743;52.262;6.172;2023-05-27T10:31:09;102205.25;;;19.60
24586;BMP280;12743;52.262;6.172;2023-05-27T10:33:38;102195.69;;;20.01
24586;BMP280;12743;52.262;6.172;2023-05-27T10:36:11;102197.44;;;19.90
24586;BMP280;12743;52.262;6.172;2023-05-27T10:38:40;102189.53;;;20.19
24586;BMP280;12743;52.262;6.172;2023-05-27T10:41:07;102185.00;;;20.46
24586;BMP280;12743;52.262;6.172;2023-05-27T10:43:35;102180.06;;;20.48
24586;BMP280;12743;52.262;6.172;2023-05-27T10:46:37;102186.72;;;20.35
24586;BMP280;12743;52.262;6.172;2023-05-27T10:48:55;102178.38;;;20.14
24586;BMP280;12743;52.262;6.172;2023-05-27T10:51:31;102172.38;;;20.20
24586;BMP280;12743;52.262;6.172;2023-05-27T10:54:02;102154.97;;;19.81
24586;BMP280;12743;52.262;6.172;2023-05-27T10:56:50;102161.34;;;20.74
24586;BMP280;12743;52.262;6.172;2023-05-27T10:59:20;102176.59;;;20.47
24586;BMP280;12743;52.262;6.172;2023-05-27T11:01:52;102160.13;;;20.16
24586;BMP280;12743;52.262;6.172;2023-05-27T11:04:22;102177.47;;;20.55
24586;BMP280;12743;52.262;6.172;2023-05-27T11:06:59;102167.06;;;20.72
24586;BMP280;12743;52.262;6.172;2023-05-27T11:09:31;102163.66;;;20.75
24586;BMP280;12743;52.262;6.172;2023-05-27T11:12:08;102151.63;;;20.33
24586;BMP280;12743;52.262;6.172;2023-05-27T11:14:35;102155.31;;;20.25
24586;BMP280;12743;52.262;6.172;2023-05-27T11:17:02;102148.38;;;19.98
24586;BMP280;12743;52.262;6.172;2023-05-27T11:19:29;102151.59;;;20.07
24586;BMP280;12743;52.262;6.172;2023-05-27T11:21:55;102139.16;;;20.70
24586;BMP280;12743;52.262;6.172;2023-05-27T11:24:22;102145.91;;;20.90
24586;BMP280;12743;52.262;6.172;2023-05-27T11:26:49;102148.13;;;20.29
24586;BMP280;12743;52.262;6.172;2023-05-27T11:29:17;102139.16;;;20.70
24586;BMP280;12743;52.262;6.172;2023-05-27T11:31:46;102144.13;;;21.01
24586;BMP280;12743;52.262;6.172;2023-05-27T11:34:14;102124.59;;;20.64
24586;BMP280;12743;52.262;6.172;2023-05-27T11:36:44;102123.59;;;21.42
24586;BMP280;12743;52.262;6.172;2023-05-27T11:39:12;102133.44;;;21.34
24586;BMP280;12743;52.262;6.172;2023-05-27T11:41:49;102134.56;;;21.73
24586;BMP280;12743;52.262;6.172;2023-05-27T11:44:18;102125.16;;;21.46
24586;BMP280;12743;52.262;6.172;2023-05-27T11:46:47;102126.53;;;22.24
24586;BMP280;12743;52.262;6.172;2023-05-27T11:49:15;102127.28;;;22.25
24586;BMP280;12743;52.262;6.172;2023-05-27T11:51:43;102111.00;;;21.93
24586;BMP280;12743;52.262;6.172;2023-05-27T11:54:26;102114.31;;;22.34
24586;BMP280;12743;52.262;6.172;2023-05-27T11:56:55;102112.72;;;22.26
24586;BMP280;12743;52.262;6.172;2023-05-27T11:59:23;102115.56;;;21.89
24586;BMP280;12743;52.262;6.172;2023-05-27T12:01:50;102114.72;;;21.34
24586;BMP280;12743;52.262;6.172;2023-05-27T12:04:17;102084.81;;;21.65
24586;BMP280;12743;52.262;6.172;2023-05-27T12:06:45;102105.53;;;22.37
24586;BMP280;12743;52.262;6.172;2023-05-27T12:09:12;102081.31;;;21.54
24586;BMP280;12743;52.262;6.172;2023-05-27T12:11:38;102088.56;;;21.57
24586;BMP280;12743;52.262;6.172;2023-05-27T12:14:05;102103.88;;;22.11
24586;BMP280;12743;52.262;6.172;2023-05-27T12:16:32;102074.69;;;22.78
24586;BMP280;12743;52.262;6.172;2023-05-27T12:18:59;102087.25;;;22.60
24586;BMP280;12743;52.262;6.172;2023-05-27T12:21:26;102089.69;;;22.97
24586;BMP280;12743;52.262;6.172;2023-05-27T12:23:52;102092.44;;;22.18
24586;BMP280;12743;52.262;6.172;2023-05-27T12:26:19;102075.84;;;22.84
24586;BMP280;12743;52.262;6.172;2023-05-27T12:28:47;102080.50;;;22.08
24586;BMP280;12743;52.262;6.172;2023-05-27T12:31:13;102081.22;;;22.80
24586;BMP280;12743;52.262;6.172;2023-05-27T12:33:40;102075.50;;;22.85
24586;BMP280;12743;52.262;6.172;2023-05-27T12:36:07;102075.06;;;22.73
24586;BMP280;12743;52.262;6.172;2023-05-27T12:38:34;102069.81;;;23.33
24586;BMP280;12743;52.262;6.172;2023-05-27T12:41:01;102066.31;;;22.90
24586;BMP280;12743;52.262;6.172;2023-05-27T12:43:28;102060.97;;;23.15
24586;BMP280;12743;52.262;6.172;2023-05-27T12:45:54;102047.81;;;22.46
24586;BMP280;12743;52.262;6.172;2023-05-27T12:48:21;102054.78;;;23.81
24586;BMP280;12743;52.262;6.172;2023-05-27T12:50:48;102030.72;;;23.21
24586;BMP280;12743;52.262;6.172;2023-05-27T12:53:15;102053.13;;;24.26
24586;BMP280;12743;52.262;6.172;2023-05-27T12:55:43;102048.19;;;24.75
24586;BMP280;12743;52.262;6.172;2023-05-27T12:58:11;102051.66;;;24.00
24586;BMP280;12743;52.262;6.172;2023-05-27T13:00:37;102045.06;;;24.22
24586;BMP280;12743;52.262;6.172;2023-05-27T13:03:04;102031.78;;;23.83
24586;BMP280;12743;52.262;6.172;2023-05-27T13:05:31;102041.84;;;24.52
24586;BMP280;12743;52.262;6.172;2023-05-27T13:07:58;102040.34;;;25.39
24586;BMP280;12743;52.262;6.172;2023-05-27T13:10:27;102039.25;;;25.36
24586;BMP280;12743;52.262;6.172;2023-05-27T13:12:54;102035.25;;;25.52
24586;BMP280;12743;52.262;6.172;2023-05-27T13:15:21;102041.56;;;25.72
24586;BMP280;12743;52.262;6.172;2023-05-27T13:17:49;102025.56;;;24.00
24586;BMP280;12743;52.262;6.172;2023-05-27T13:20:17;102024.88;;;24.62
24586;BMP280;12743;52.262;6.172;2023-05-27T13:22:45;102024.59;;;25.75
24586;BMP280;12743;52.262;6.172;2023-05-27T13:25:12;102007.84;;;25.60
24586;BMP280;12743;52.262;6.172;2023-05-27T13:27:39;102014.97;;;24.52
24586;BMP280;12743;52.262;6.172;2023-05-27T13:30:09;102009.50;;;25.10
24586;BMP280;12743;52.262;6.172;2023-05-27T13:32:36;102025.28;;;24.57
24586;BMP280;12743;52.262;6.172;2023-05-27T13:35:02;102016.22;;;24.30
24586;BMP280;12743;52.262;6.172;2023-05-27T13:37:29;102022.91;;;24.69
24586;BMP280;12743;52.262;6.172;2023-05-27T13:39:56;102023.34;;;24.61
24586;BMP280;12743;52.262;6.172;2023-05-27T13:42:24;102008.41;;;25.44
24586;BMP280;12743;52.262;6.172;2023-05-27T13:44:50;102003.94;;;25.65
24586;BMP280;12743;52.262;6.172;2023-05-27T13:47:17;102008.81;;;25.77
24586;BMP280;12743;52.262;6.172;2023-05-27T13:49:44;101998.94;;;26.23
24586;BMP280;12743;52.262;6.172;2023-05-27T13:52:10;101975.88;;;25.96
24586;BMP280;12743;52.262;6.172;2023-05-27T13:54:37;102002.13;;;25.88
24586;BMP280;12743;52.262;6.172;2023-05-27T13:57:04;101974.22;;;26.02
24586;BMP280;12743;52.262;6.172;2023-05-27T13:59:31;101969.81;;;26.64
24586;BMP280;12743;52.262;6.172;2023-05-27T14:01:57;101977.31;;;27.19
24586;BMP280;12743;52.262;6.172;2023-05-27T14:04:24;101976.19;;;27.56
24586;BMP280;12743;52.262;6.172;2023-05-27T14:06:51;101943.53;;;27.31
24586;BMP280;12743;52.262;6.172;2023-05-27T14:09:18;101970.34;;;27.22
24586;BMP280;12743;52.262;6.172;2023-05-27T14:11:45;101961.25;;;27.87
24586;BMP280;12743;52.262;6.172;2023-05-27T14:14:11;101964.97;;;26.99
24586;BMP280;12743;52.262;6.172;2023-05-27T14:16:38;101939.31;;;26.91
24586;BMP280;12743;52.262;6.172;2023-05-27T14:19:05;101968.78;;;27.21